Boswell, Canada
Current Conditions -  °F | °C
As of 6:00 AM on Wednesday 22 Oct 2014 (Local Time) from CYCG Reporting Station
Overcast Overcast  
Wind Chill: 48°   Ceiling: 5200
Heat Index: 48°   Visibility: 15mi
Dew Point: 46°   Wind: 2mph
Humidity: 93%   Direction: NA
Pressure: 29.9"   Gusts: NA
Location:  49.47°N, 116.77°W
Report Text: CYCG 221300Z VRB02KT 15SM BKN052 OVC120 09/08 A2990 RMK SC6AC2 SLP128
Loading
Personal Weather Stations






























Interactive Weather Map
Tropical Storm Tracking
New forecast layout! Learn more

10-Day Weather Forecast

Advertisements
Track Severe Weather on mobile